sensor_id;sensor_type;location;lat;lon;timestamp;temperature;humidity
33139;DHT22;19501;50.948;5.316;2023-02-19T00:01:11;10.60;99.90
33139;DHT22;19501;50.948;5.316;2023-02-19T00:03:37;10.60;99.90
33139;DHT22;19501;50.948;5.316;2023-02-19T00:06:05;10.70;99.90
33139;DHT22;19501;50.948;5.316;2023-02-19T00:08:33;10.70;99.90
33139;DHT22;19501;50.948;5.316;2023-02-19T00:11:03;10.70;99.90
33139;DHT22;19501;50.948;5.316;2023-02-19T00:13:30;10.60;99.90
33139;DHT22;19501;50.948;5.316;2023-02-19T00:15:56;10.60;99.90
33139;DHT22;19501;50.948;5.316;2023-02-19T00:18:24;10.60;99.90
33139;DHT22;19501;50.948;5.316;2023-02-19T00:20:50;10.60;99.90
33139;DHT22;19501;50.948;5.316;2023-02-19T00:23:16;10.60;99.90
33139;DHT22;19501;50.948;5.316;2023-02-19T00:25:41;10.60;99.90
33139;DHT22;19501;50.948;5.316;2023-02-19T00:28:07;10.60;99.90
33139;DHT22;19501;50.948;5.316;2023-02-19T00:30:33;10.60;99.90
33139;DHT22;19501;50.948;5.316;2023-02-19T00:32:58;10.60;99.90
33139;DHT22;19501;50.948;5.316;2023-02-19T00:35:26;10.50;99.90
33139;DHT22;19501;50.948;5.316;2023-02-19T00:37:52;10.50;99.90
33139;DHT22;19501;50.948;5.316;2023-02-19T00:40:18;10.60;99.90
33139;DHT22;19501;50.948;5.316;2023-02-19T00:42:49;10.60;99.90
33139;DHT22;19501;50.948;5.316;2023-02-19T00:45:14;10.60;99.90
33139;DHT22;19501;50.948;5.316;2023-02-19T00:47:40;10.60;99.90
33139;DHT22;19501;50.948;5.316;2023-02-19T00:50:06;10.60;99.90
33139;DHT22;19501;50.948;5.316;2023-02-19T00:52:31;10.60;99.90
33139;DHT22;19501;50.948;5.316;2023-02-19T00:54:57;10.60;99.90
33139;DHT22;19501;50.948;5.316;2023-02-19T00:57:23;10.60;99.90
33139;DHT22;19501;50.948;5.316;2023-02-19T00:59:51;10.60;99.90
33139;DHT22;19501;50.948;5.316;2023-02-19T01:02:17;10.70;99.90
33139;DHT22;19501;50.948;5.316;2023-02-19T01:04:42;10.70;99.90
33139;DHT22;19501;50.948;5.316;2023-02-19T01:07:08;10.60;99.90
33139;DHT22;19501;50.948;5.316;2023-02-19T01:09:34;10.70;99.90
33139;DHT22;19501;50.948;5.316;2023-02-19T01:12:00;10.70;99.90
33139;DHT22;19501;50.948;5.316;2023-02-19T01:14:25;10.70;99.90
33139;DHT22;19501;50.948;5.316;2023-02-19T01:16:54;10.70;99.90
33139;DHT22;19501;50.948;5.316;2023-02-19T01:19:20;10.70;99.90
33139;DHT22;19501;50.948;5.316;2023-02-19T01:21:45;10.70;99.90
33139;DHT22;19501;50.948;5.316;2023-02-19T01:24:11;10.70;99.90
33139;DHT22;19501;50.948;5.316;2023-02-19T01:26:37;10.70;99.90
33139;DHT22;19501;50.948;5.316;2023-02-19T01:29:03;10.80;99.90
33139;DHT22;19501;50.948;5.316;2023-02-19T01:31:29;10.80;99.90
33139;DHT22;19501;50.948;5.316;2023-02-19T01:34:00;10.80;99.90
33139;DHT22;19501;50.948;5.316;2023-02-19T01:36:27;10.90;99.90
33139;DHT22;19501;50.948;5.316;2023-02-19T01:38:53;10.90;99.90
33139;DHT22;19501;50.948;5.316;2023-02-19T01:41:22;10.80;99.90
33139;DHT22;19501;50.948;5.316;2023-02-19T01:46:31;10.90;99.90
33139;DHT22;19501;50.948;5.316;2023-02-19T01:49:05;10.90;99.90
33139;DHT22;19501;50.948;5.316;2023-02-19T01:51:33;10.90;99.90
33139;DHT22;19501;50.948;5.316;2023-02-19T01:54:02;10.90;99.90
33139;DHT22;19501;50.948;5.316;2023-02-19T01:56:29;10.90;99.90
33139;DHT22;19501;50.948;5.316;2023-02-19T01:58:55;10.90;99.90
33139;DHT22;19501;50.948;5.316;2023-02-19T02:01:22;10.90;99.90
33139;DHT22;19501;50.948;5.316;2023-02-19T02:03:48;11.00;99.90
33139;DHT22;19501;50.948;5.316;2023-02-19T02:06:26;10.90;99.90
33139;DHT22;19501;50.948;5.316;2023-02-19T02:08:56;10.90;99.90
33139;DHT22;19501;50.948;5.316;2023-02-19T02:11:47;10.90;99.90
33139;DHT22;19501;50.948;5.316;2023-02-19T02:14:14;10.90;99.90
33139;DHT22;19501;50.948;5.316;2023-02-19T02:22:18;10.90;99.90
33139;DHT22;19501;50.948;5.316;2023-02-19T02:24:55;10.90;99.90
33139;DHT22;19501;50.948;5.316;2023-02-19T02:27:42;10.90;99.90
33139;DHT22;19501;50.948;5.316;2023-02-19T02:35:31;10.90;99.90
33139;DHT22;19501;50.948;5.316;2023-02-19T02:38:02;10.90;99.90
33139;DHT22;19501;50.948;5.316;2023-02-19T02:40:30;10.80;99.90
33139;DHT22;19501;50.948;5.316;2023-02-19T02:42:58;10.80;99.90
33139;DHT22;19501;50.948;5.316;2023-02-19T02:45:30;10.90;99.90
33139;DHT22;19501;50.948;5.316;2023-02-19T02:48:01;10.90;99.90
33139;DHT22;19501;50.948;5.316;2023-02-19T02:53:59;11.00;99.90
33139;DHT22;19501;50.948;5.316;2023-02-19T02:56:24;10.90;99.90
33139;DHT22;19501;50.948;5.316;2023-02-19T02:58:53;10.90;99.90
33139;DHT22;19501;50.948;5.316;2023-02-19T03:02:09;10.90;99.90
33139;DHT22;19501;50.948;5.316;2023-02-19T03:06:59;10.80;99.90
33139;DHT22;19501;50.948;5.316;2023-02-19T03:09:32;10.90;99.90
33139;DHT22;19501;50.948;5.316;2023-02-19T03:12:01;10.90;99.90
33139;DHT22;19501;50.948;5.316;2023-02-19T03:14:49;10.90;99.90
33139;DHT22;19501;50.948;5.316;2023-02-19T03:17:59;10.80;99.90
33139;DHT22;19501;50.948;5.316;2023-02-19T03:20:47;10.90;99.90
33139;DHT22;19501;50.948;5.316;2023-02-19T03:23:17;10.90;99.90
33139;DHT22;19501;50.948;5.316;2023-02-19T03:25:45;10.90;99.90
33139;DHT22;19501;50.948;5.316;2023-02-19T03:28:32;10.90;99.90
33139;DHT22;19501;50.948;5.316;2023-02-19T03:31:20;10.90;99.90
33139;DHT22;19501;50.948;5.316;2023-02-19T03:33:52;10.90;99.90
33139;DHT22;19501;50.948;5.316;2023-02-19T03:36:19;10.90;99.90
33139;DHT22;19501;50.948;5.316;2023-02-19T03:38:57;10.90;99.90
33139;DHT22;19501;50.948;5.316;2023-02-19T03:41:47;10.90;99.90
33139;DHT22;19501;50.948;5.316;2023-02-19T03:55:29;10.90;99.90
33139;DHT22;19501;50.948;5.316;2023-02-19T04:03:49;10.80;99.90
33139;DHT22;19501;50.948;5.316;2023-02-19T04:06:24;10.80;99.90
33139;DHT22;19501;50.948;5.316;2023-02-19T04:08:54;10.80;99.90
33139;DHT22;19501;50.948;5.316;2023-02-19T04:11:26;10.80;99.90
33139;DHT22;19501;50.948;5.316;2023-02-19T04:16:35;10.80;99.90
33139;DHT22;19501;50.948;5.316;2023-02-19T04:19:06;10.80;99.90
33139;DHT22;19501;50.948;5.316;2023-02-19T04:21:33;10.80;99.90
33139;DHT22;19501;50.948;5.316;2023-02-19T04:24:05;10.80;99.90
33139;DHT22;19501;50.948;5.316;2023-02-19T04:26:32;10.70;99.90
33139;DHT22;19501;50.948;5.316;2023-02-19T04:28:59;10.80;99.90
33139;DHT22;19501;50.948;5.316;2023-02-19T04:31:26;10.80;99.90
33139;DHT22;19501;50.948;5.316;2023-02-19T04:33:53;10.90;99.90
33139;DHT22;19501;50.948;5.316;2023-02-19T04:36:18;10.80;99.90
33139;DHT22;19501;50.948;5.316;2023-02-19T04:38:44;10.80;99.90
33139;DHT22;19501;50.948;5.316;2023-02-19T04:41:10;10.70;99.90
33139;DHT22;19501;50.948;5.316;2023-02-19T04:43:35;10.70;99.90
33139;DHT22;19501;50.948;5.316;2023-02-19T04:46:01;10.70;99.90
33139;DHT22;19501;50.948;5.316;2023-02-19T04:48:27;10.80;99.90
33139;DHT22;19501;50.948;5.316;2023-02-19T04:50:53;10.80;99.90
33139;DHT22;19501;50.948;5.316;2023-02-19T04:53:19;10.80;99.90
33139;DHT22;19501;50.948;5.316;2023-02-19T04:55:46;10.80;99.90
33139;DHT22;19501;50.948;5.316;2023-02-19T04:58:12;10.80;99.90
33139;DHT22;19501;50.948;5.316;2023-02-19T05:00:38;10.70;99.90
33139;DHT22;19501;50.948;5.316;2023-02-19T05:03:04;10.80;99.90
33139;DHT22;19501;50.948;5.316;2023-02-19T05:05:29;10.80;99.90
33139;DHT22;19501;50.948;5.316;2023-02-19T05:07:55;10.80;99.90
33139;DHT22;19501;50.948;5.316;2023-02-19T05:10:23;10.80;99.90
33139;DHT22;19501;50.948;5.316;2023-02-19T05:12:49;10.70;99.90
33139;DHT22;19501;50.948;5.316;2023-02-19T05:15:15;10.70;99.90
33139;DHT22;19501;50.948;5.316;2023-02-19T05:17:40;10.70;99.90
33139;DHT22;19501;50.948;5.316;2023-02-19T05:20:06;10.70;99.90
33139;DHT22;19501;50.948;5.316;2023-02-19T05:22:32;10.70;99.90
33139;DHT22;19501;50.948;5.316;2023-02-19T05:24:58;10.80;99.90
33139;DHT22;19501;50.948;5.316;2023-02-19T05:27:24;10.70;99.90
33139;DHT22;19501;50.948;5.316;2023-02-19T05:29:49;10.80;99.90
33139;DHT22;19501;50.948;5.316;2023-02-19T05:32:15;10.70;99.90
33139;DHT22;19501;50.948;5.316;2023-02-19T05:34:40;10.70;99.90
33139;DHT22;19501;50.948;5.316;2023-02-19T05:37:06;10.70;99.90
33139;DHT22;19501;50.948;5.316;2023-02-19T05:39:32;10.60;99.90
33139;DHT22;19501;50.948;5.316;2023-02-19T05:41:57;10.60;99.90
33139;DHT22;19501;50.948;5.316;2023-02-19T05:44:23;10.60;99.90
33139;DHT22;19501;50.948;5.316;2023-02-19T05:46:49;10.70;99.90
33139;DHT22;19501;50.948;5.316;2023-02-19T05:49:14;10.70;99.90
33139;DHT22;19501;50.948;5.316;2023-02-19T05:51:40;10.70;99.90
33139;DHT22;19501;50.948;5.316;2023-02-19T05:54:06;10.60;99.90
33139;DHT22;19501;50.948;5.316;2023-02-19T05:56:41;10.70;99.90
33139;DHT22;19501;50.948;5.316;2023-02-19T05:59:22;10.70;99.90
33139;DHT22;19501;50.948;5.316;2023-02-19T06:01:49;10.70;99.90
33139;DHT22;19501;50.948;5.316;2023-02-19T06:04:16;10.70;99.90
33139;DHT22;19501;50.948;5.316;2023-02-19T06:06:44;10.60;99.90
33139;DHT22;19501;50.948;5.316;2023-02-19T06:09:10;10.60;99.90
33139;DHT22;19501;50.948;5.316;2023-02-19T06:11:36;10.70;99.90
33139;DHT22;19501;50.948;5.316;2023-02-19T06:14:02;10.70;99.90
33139;DHT22;19501;50.948;5.316;2023-02-19T06:16:28;10.70;99.90
33139;DHT22;19501;50.948;5.316;2023-02-19T06:18:55;10.70;99.90
33139;DHT22;19501;50.948;5.316;2023-02-19T06:21:23;10.70;99.90
33139;DHT22;19501;50.948;5.316;2023-02-19T06:23:51;10.70;99.90
33139;DHT22;19501;50.948;5.316;2023-02-19T06:26:22;10.70;99.90
33139;DHT22;19501;50.948;5.316;2023-02-19T06:28:49;10.70;99.90
33139;DHT22;19501;50.948;5.316;2023-02-19T06:31:16;10.70;99.90
33139;DHT22;19501;50.948;5.316;2023-02-19T06:33:43;10.60;99.90
33139;DHT22;19501;50.948;5.316;2023-02-19T06:36:14;10.60;99.90
33139;DHT22;19501;50.948;5.316;2023-02-19T06:38:40;10.60;99.90
33139;DHT22;19501;50.948;5.316;2023-02-19T06:41:07;10.60;99.90
33139;DHT22;19501;50.948;5.316;2023-02-19T06:43:33;10.60;99.90
33139;DHT22;19501;50.948;5.316;2023-02-19T06:46:03;10.60;99.90
33139;DHT22;19501;50.948;5.316;2023-02-19T06:48:30;10.60;99.90
33139;DHT22;19501;50.948;5.316;2023-02-19T06:50:57;10.60;99.90
33139;DHT22;19501;50.948;5.316;2023-02-19T06:53:23;10.60;99.90
33139;DHT22;19501;50.948;5.316;2023-02-19T06:55:56;10.60;99.90
33139;DHT22;19501;50.948;5.316;2023-02-19T06:58:22;10.60;99.90
33139;DHT22;19501;50.948;5.316;2023-02-19T07:00:48;10.60;99.90
33139;DHT22;19501;50.948;5.316;2023-02-19T07:03:14;10.60;99.90
33139;DHT22;19501;50.948;5.316;2023-02-19T07:05:39;10.60;99.90
33139;DHT22;19501;50.948;5.316;2023-02-19T07:08:05;10.60;99.90
33139;DHT22;19501;50.948;5.316;2023-02-19T07:10:31;10.60;99.90
33139;DHT22;19501;50.948;5.316;2023-02-19T07:12:56;10.60;99.90
33139;DHT22;19501;50.948;5.316;2023-02-19T07:15:22;10.60;99.90
33139;DHT22;19501;50.948;5.316;2023-02-19T07:17:47;10.50;99.90
33139;DHT22;19501;50.948;5.316;2023-02-19T07:20:13;10.40;99.90
33139;DHT22;19501;50.948;5.316;2023-02-19T07:22:39;10.60;99.90
33139;DHT22;19501;50.948;5.316;2023-02-19T07:25:04;10.60;99.90
33139;DHT22;19501;50.948;5.316;2023-02-19T07:27:30;10.70;99.90
33139;DHT22;19501;50.948;5.316;2023-02-19T07:29:56;10.60;99.90
33139;DHT22;19501;50.948;5.316;2023-02-19T07:32:22;10.70;99.90
33139;DHT22;19501;50.948;5.316;2023-02-19T07:34:47;10.60;99.90
33139;DHT22;19501;50.948;5.316;2023-02-19T07:37:13;10.70;99.90
33139;DHT22;19501;50.948;5.316;2023-02-19T07:39:39;10.70;99.90
33139;DHT22;19501;50.948;5.316;2023-02-19T07:42:04;10.60;99.90
33139;DHT22;19501;50.948;5.316;2023-02-19T07:44:30;10.60;99.90
33139;DHT22;19501;50.948;5.316;2023-02-19T07:46:56;10.60;99.90
33139;DHT22;19501;50.948;5.316;2023-02-19T07:49:21;10.60;99.90
33139;DHT22;19501;50.948;5.316;2023-02-19T07:51:47;10.70;99.90
33139;DHT22;19501;50.948;5.316;2023-02-19T07:54:15;10.70;99.90
33139;DHT22;19501;50.948;5.316;2023-02-19T07:56:40;10.70;99.90
33139;DHT22;19501;50.948;5.316;2023-02-19T07:59:06;10.70;99.90
33139;DHT22;19501;50.948;5.316;2023-02-19T08:01:32;10.70;99.90
33139;DHT22;19501;50.948;5.316;2023-02-19T08:04:16;10.70;99.90
33139;DHT22;19501;50.948;5.316;2023-02-19T08:06:43;10.70;99.90
33139;DHT22;19501;50.948;5.316;2023-02-19T08:09:10;10.60;99.90
33139;DHT22;19501;50.948;5.316;2023-02-19T08:11:36;10.70;99.90
33139;DHT22;19501;50.948;5.316;2023-02-19T08:14:26;10.70;99.90
33139;DHT22;19501;50.948;5.316;2023-02-19T08:16:52;10.60;99.90
33139;DHT22;19501;50.948;5.316;2023-02-19T08:19:18;10.50;99.90
33139;DHT22;19501;50.948;5.316;2023-02-19T08:21:44;10.30;99.90
33139;DHT22;19501;50.948;5.316;2023-02-19T08:24:10;10.30;99.90
33139;DHT22;19501;50.948;5.316;2023-02-19T08:26:36;10.20;99.90
33139;DHT22;19501;50.948;5.316;2023-02-19T08:29:03;10.10;99.90
33139;DHT22;19501;50.948;5.316;2023-02-19T08:31:30;10.10;99.90
33139;DHT22;19501;50.948;5.316;2023-02-19T08:33:56;10.10;99.90
33139;DHT22;19501;50.948;5.316;2023-02-19T08:36:22;10.10;99.90
33139;DHT22;19501;50.948;5.316;2023-02-19T08:38:50;10.20;99.90
33139;DHT22;19501;50.948;5.316;2023-02-19T08:41:16;10.10;99.90
33139;DHT22;19501;50.948;5.316;2023-02-19T08:43:42;10.00;99.90
33139;DHT22;19501;50.948;5.316;2023-02-19T08:46:12;9.90;99.90
33139;DHT22;19501;50.948;5.316;2023-02-19T08:48:39;9.90;99.90
33139;DHT22;19501;50.948;5.316;2023-02-19T08:51:09;9.90;99.90
33139;DHT22;19501;50.948;5.316;2023-02-19T08:53:36;10.00;99.90
33139;DHT22;19501;50.948;5.316;2023-02-19T08:56:12;10.00;99.90
33139;DHT22;19501;50.948;5.316;2023-02-19T08:58:39;10.00;99.90
33139;DHT22;19501;50.948;5.316;2023-02-19T09:01:13;10.00;99.90
33139;DHT22;19501;50.948;5.316;2023-02-19T09:03:42;9.80;99.90
33139;DHT22;19501;50.948;5.316;2023-02-19T09:06:16;9.80;99.90
33139;DHT22;19501;50.948;5.316;2023-02-19T09:08:44;9.80;99.90
33139;DHT22;19501;50.948;5.316;2023-02-19T09:11:10;9.80;99.90
33139;DHT22;19501;50.948;5.316;2023-02-19T09:13:36;9.90;99.90
33139;DHT22;19501;50.948;5.316;2023-02-19T09:16:03;10.00;99.90
33139;DHT22;19501;50.948;5.316;2023-02-19T09:18:28;10.00;99.90
33139;DHT22;19501;50.948;5.316;2023-02-19T09:20:59;10.00;99.90
33139;DHT22;19501;50.948;5.316;2023-02-19T09:23:25;9.90;99.90
33139;DHT22;19501;50.948;5.316;2023-02-19T09:25:57;10.00;99.90
33139;DHT22;19501;50.948;5.316;2023-02-19T09:28:24;10.00;99.90
33139;DHT22;19501;50.948;5.316;2023-02-19T09:30:50;9.90;99.90
33139;DHT22;19501;50.948;5.316;2023-02-19T09:33:15;10.00;99.90
33139;DHT22;19501;50.948;5.316;2023-02-19T09:35:43;10.10;99.90
33139;DHT22;19501;50.948;5.316;2023-02-19T09:38:09;10.20;99.90
33139;DHT22;19501;50.948;5.316;2023-02-19T09:40:36;10.30;99.90
33139;DHT22;19501;50.948;5.316;2023-02-19T09:43:08;10.30;99.90
33139;DHT22;19501;50.948;5.316;2023-02-19T09:45:36;10.40;99.90
33139;DHT22;19501;50.948;5.316;2023-02-19T09:48:02;10.50;99.90
33139;DHT22;19501;50.948;5.316;2023-02-19T09:50:42;10.50;99.90
33139;DHT22;19501;50.948;5.316;2023-02-19T09:53:29;10.50;99.90
33139;DHT22;19501;50.948;5.316;2023-02-19T09:55:56;10.50;99.90
33139;DHT22;19501;50.948;5.316;2023-02-19T10:00:54;10.60;99.90
33139;DHT22;19501;50.948;5.316;2023-02-19T10:03:35;10.70;99.90
33139;DHT22;19501;50.948;5.316;2023-02-19T10:06:22;10.70;99.90
33139;DHT22;19501;50.948;5.316;2023-02-19T10:08:51;10.70;99.90
33139;DHT22;19501;50.948;5.316;2023-02-19T10:11:17;10.60;99.90
33139;DHT22;19501;50.948;5.316;2023-02-19T10:14:03;10.40;99.90
33139;DHT22;19501;50.948;5.316;2023-02-19T10:16:29;10.30;99.90
33139;DHT22;19501;50.948;5.316;2023-02-19T10:18:57;10.10;99.90
33139;DHT22;19501;50.948;5.316;2023-02-19T10:21:25;10.00;99.90
33139;DHT22;19501;50.948;5.316;2023-02-19T10:23:59;10.10;99.90
33139;DHT22;19501;50.948;5.316;2023-02-19T10:26:27;10.10;99.90
33139;DHT22;19501;50.948;5.316;2023-02-19T10:28:53;10.20;99.90
33139;DHT22;19501;50.948;5.316;2023-02-19T10:31:24;10.30;99.90
33139;DHT22;19501;50.948;5.316;2023-02-19T10:33:57;10.30;99.90
33139;DHT22;19501;50.948;5.316;2023-02-19T10:36:32;10.40;99.90
33139;DHT22;19501;50.948;5.316;2023-02-19T10:39:00;10.40;99.90
33139;DHT22;19501;50.948;5.316;2023-02-19T10:41:27;10.50;99.90
33139;DHT22;19501;50.948;5.316;2023-02-19T10:46:55;10.60;99.90
33139;DHT22;19501;50.948;5.316;2023-02-19T10:51:51;11.00;99.90
33139;DHT22;19501;50.948;5.316;2023-02-19T10:54:29;11.00;99.90
33139;DHT22;19501;50.948;5.316;2023-02-19T10:59:49;10.90;99.90
33139;DHT22;19501;50.948;5.316;2023-02-19T11:02:16;10.90;99.90
33139;DHT22;19501;50.948;5.316;2023-02-19T11:07:26;10.90;99.90
33139;DHT22;19501;50.948;5.316;2023-02-19T11:09:52;11.00;99.90
33139;DHT22;19501;50.948;5.316;2023-02-19T11:12:27;10.90;99.90
33139;DHT22;19501;50.948;5.316;2023-02-19T11:14:53;11.00;99.90
33139;DHT22;19501;50.948;5.316;2023-02-19T11:17:27;11.00;99.90
33139;DHT22;19501;50.948;5.316;2023-02-19T11:20:01;11.10;99.90
33139;DHT22;19501;50.948;5.316;2023-02-19T11:22:38;11.10;99.90
33139;DHT22;19501;50.948;5.316;2023-02-19T11:25:19;11.00;99.90
33139;DHT22;19501;50.948;5.316;2023-02-19T11:27:57;11.00;99.90
33139;DHT22;19501;50.948;5.316;2023-02-19T11:32:56;10.90;99.90
33139;DHT22;19501;50.948;5.316;2023-02-19T11:35:22;10.80;99.90
33139;DHT22;19501;50.948;5.316;2023-02-19T11:37:59;10.80;99.90
33139;DHT22;19501;50.948;5.316;2023-02-19T11:46:19;10.40;99.90
33139;DHT22;19501;50.948;5.316;2023-02-19T11:48:58;10.30;99.90
33139;DHT22;19501;50.948;5.316;2023-02-19T11:54:46;10.30;99.90
33139;DHT22;19501;50.948;5.316;2023-02-19T11:57:37;10.50;99.90
33139;DHT22;19501;50.948;5.316;2023-02-19T12:00:19;10.50;99.90
33139;DHT22;19501;50.948;5.316;2023-02-19T12:08:42;10.80;99.90
33139;DHT22;19501;50.948;5.316;2023-02-19T12:19:43;11.00;99.90
33139;DHT22;19501;50.948;5.316;2023-02-19T12:22:36;11.10;99.90
33139;DHT22;19501;50.948;5.316;2023-02-19T12:35:48;11.40;99.90
33139;DHT22;19501;50.948;5.316;2023-02-19T12:38:33;11.40;99.90
33139;DHT22;19501;50.948;5.316;2023-02-19T12:43:39;11.50;99.90
33139;DHT22;19501;50.948;5.316;2023-02-19T12:51:16;11.60;99.90
33139;DHT22;19501;50.948;5.316;2023-02-19T12:53:59;11.60;99.90
33139;DHT22;19501;50.948;5.316;2023-02-19T12:56:54;11.50;99.90
33139;DHT22;19501;50.948;5.316;2023-02-19T13:02:44;11.40;99.90
33139;DHT22;19501;50.948;5.316;2023-02-19T13:08:03;11.30;99.90
33139;DHT22;19501;50.948;5.316;2023-02-19T13:10:37;11.40;99.90
33139;DHT22;19501;50.948;5.316;2023-02-19T13:13:11;11.40;99.90
33139;DHT22;19501;50.948;5.316;2023-02-19T13:15:41;11.50;99.90
33139;DHT22;19501;50.948;5.316;2023-02-19T13:18:18;11.50;99.90
33139;DHT22;19501;50.948;5.316;2023-02-19T13:20:47;11.50;99.90
33139;DHT22;19501;50.948;5.316;2023-02-19T13:23:32;11.60;99.90
33139;DHT22;19501;50.948;5.316;2023-02-19T13:38:15;11.20;99.90
33139;DHT22;19501;50.948;5.316;2023-02-19T13:40:52;11.20;99.90
33139;DHT22;19501;50.948;5.316;2023-02-19T13:43:25;11.20;99.90
33139;DHT22;19501;50.948;5.316;2023-02-19T13:46:01;11.10;99.90
33139;DHT22;19501;50.948;5.316;2023-02-19T13:48:29;11.10;99.90
33139;DHT22;19501;50.948;5.316;2023-02-19T14:12:49;10.60;99.90
33139;DHT22;19501;50.948;5.316;2023-02-19T14:14:53;10.60;99.90
33139;DHT22;19501;50.948;5.316;2023-02-19T14:17:27;10.70;99.90
33139;DHT22;19501;50.948;5.316;2023-02-19T14:33:16;10.90;99.90
33139;DHT22;19501;50.948;5.316;2023-02-19T14:35:45;10.80;99.90
33139;DHT22;19501;50.948;5.316;2023-02-19T14:38:53;10.70;99.90
33139;DHT22;19501;50.948;5.316;2023-02-19T14:41:20;10.50;99.90
33139;DHT22;19501;50.948;5.316;2023-02-19T14:43:49;10.30;99.90
33139;DHT22;19501;50.948;5.316;2023-02-19T14:46:31;10.30;99.90
33139;DHT22;19501;50.948;5.316;2023-02-19T14:49:07;10.30;99.90
33139;DHT22;19501;50.948;5.316;2023-02-19T14:51:40;10.30;99.90
33139;DHT22;19501;50.948;5.316;2023-02-19T14:54:24;10.40;99.90
33139;DHT22;19501;50.948;5.316;2023-02-19T14:56:53;10.40;99.90
33139;DHT22;19501;50.948;5.316;2023-02-19T14:59:24;10.60;99.90
33139;DHT22;19501;50.948;5.316;2023-02-19T15:02:01;10.60;99.90
33139;DHT22;19501;50.948;5.316;2023-02-19T15:04:35;10.80;99.90
33139;DHT22;19501;50.948;5.316;2023-02-19T15:07:06;10.80;99.90
33139;DHT22;19501;50.948;5.316;2023-02-19T15:09:38;10.80;99.90
33139;DHT22;19501;50.948;5.316;2023-02-19T15:12:05;10.80;99.90
33139;DHT22;19501;50.948;5.316;2023-02-19T15:14:31;10.70;99.90
33139;DHT22;19501;50.948;5.316;2023-02-19T15:17:00;10.80;99.90
33139;DHT22;19501;50.948;5.316;2023-02-19T15:19:28;10.70;99.90
33139;DHT22;19501;50.948;5.316;2023-02-19T15:21:57;10.50;99.90
33139;DHT22;19501;50.948;5.316;2023-02-19T15:24:26;10.40;99.90
33139;DHT22;19501;50.948;5.316;2023-02-19T15:26:53;10.50;99.90
33139;DHT22;19501;50.948;5.316;2023-02-19T15:29:22;10.40;99.90
33139;DHT22;19501;50.948;5.316;2023-02-19T15:34:26;10.40;99.90
33139;DHT22;19501;50.948;5.316;2023-02-19T15:37:01;10.40;99.90
33139;DHT22;19501;50.948;5.316;2023-02-19T15:39:38;10.50;99.90
33139;DHT22;19501;50.948;5.316;2023-02-19T15:42:06;10.60;99.90
33139;DHT22;19501;50.948;5.316;2023-02-19T15:44:37;10.50;99.90
33139;DHT22;19501;50.948;5.316;2023-02-19T15:47:12;10.50;99.90
33139;DHT22;19501;50.948;5.316;2023-02-19T15:49:53;10.40;99.90
33139;DHT22;19501;50.948;5.316;2023-02-19T15:53:13;10.40;99.90
33139;DHT22;19501;50.948;5.316;2023-02-19T15:55:25;10.50;99.90
33139;DHT22;19501;50.948;5.316;2023-02-19T15:58:10;10.40;99.90
33139;DHT22;19501;50.948;5.316;2023-02-19T16:03:18;10.30;99.90
33139;DHT22;19501;50.948;5.316;2023-02-19T16:05:45;10.30;99.90
33139;DHT22;19501;50.948;5.316;2023-02-19T16:08:28;10.20;99.90
33139;DHT22;19501;50.948;5.316;2023-02-19T16:10:57;10.30;99.90
33139;DHT22;19501;50.948;5.316;2023-02-19T16:13:27;10.30;99.90
33139;DHT22;19501;50.948;5.316;2023-02-19T16:18:44;10.30;99.90
33139;DHT22;19501;50.948;5.316;2023-02-19T16:21:14;10.20;99.90
33139;DHT22;19501;50.948;5.316;2023-02-19T16:23:45;10.20;99.90
33139;DHT22;19501;50.948;5.316;2023-02-19T16:26:12;10.20;99.90
33139;DHT22;19501;50.948;5.316;2023-02-19T16:28:39;10.20;99.90
33139;DHT22;19501;50.948;5.316;2023-02-19T16:31:10;10.20;99.90
33139;DHT22;19501;50.948;5.316;2023-02-19T16:46:59;9.90;99.90
33139;DHT22;19501;50.948;5.316;2023-02-19T16:49:26;9.90;99.90
33139;DHT22;19501;50.948;5.316;2023-02-19T16:51:52;10.00;99.90
33139;DHT22;19501;50.948;5.316;2023-02-19T16:54:19;9.90;99.90
33139;DHT22;19501;50.948;5.316;2023-02-19T16:56:44;10.00;99.90
33139;DHT22;19501;50.948;5.316;2023-02-19T16:59:10;10.00;99.90
33139;DHT22;19501;50.948;5.316;2023-02-19T17:01:36;10.00;99.90
33139;DHT22;19501;50.948;5.316;2023-02-19T17:04:04;9.90;99.90
33139;DHT22;19501;50.948;5.316;2023-02-19T17:06:31;9.90;99.90
33139;DHT22;19501;50.948;5.316;2023-02-19T17:09:05;9.90;99.90
33139;DHT22;19501;50.948;5.316;2023-02-19T17:11:34;9.70;99.90
33139;DHT22;19501;50.948;5.316;2023-02-19T17:14:00;9.70;99.90
33139;DHT22;19501;50.948;5.316;2023-02-19T17:16:28;9.70;99.90
33139;DHT22;19501;50.948;5.316;2023-02-19T17:18:56;9.60;99.90
33139;DHT22;19501;50.948;5.316;2023-02-19T17:21:27;9.50;99.90
33139;DHT22;19501;50.948;5.316;2023-02-19T17:23:54;9.50;99.90
33139;DHT22;19501;50.948;5.316;2023-02-19T17:26:26;9.60;99.90
33139;DHT22;19501;50.948;5.316;2023-02-19T17:28:56;9.60;99.90
33139;DHT22;19501;50.948;5.316;2023-02-19T17:31:22;9.60;99.90
33139;DHT22;19501;50.948;5.316;2023-02-19T17:33:48;9.60;99.90
33139;DHT22;19501;50.948;5.316;2023-02-19T17:36:20;9.60;99.90
33139;DHT22;19501;50.948;5.316;2023-02-19T17:38:46;9.60;99.90
33139;DHT22;19501;50.948;5.316;2023-02-19T17:41:12;9.60;99.90
33139;DHT22;19501;50.948;5.316;2023-02-19T17:43:37;9.60;99.90
33139;DHT22;19501;50.948;5.316;2023-02-19T17:46:03;9.60;99.90
33139;DHT22;19501;50.948;5.316;2023-02-19T17:48:29;9.50;99.90
33139;DHT22;19501;50.948;5.316;2023-02-19T17:50:55;9.70;99.90
33139;DHT22;19501;50.948;5.316;2023-02-19T17:53:21;9.70;99.90
33139;DHT22;19501;50.948;5.316;2023-02-19T17:55:46;9.70;99.90
33139;DHT22;19501;50.948;5.316;2023-02-19T17:58:12;9.70;99.90
33139;DHT22;19501;50.948;5.316;2023-02-19T18:00:40;9.60;99.90
33139;DHT22;19501;50.948;5.316;2023-02-19T18:03:08;9.60;99.90
33139;DHT22;19501;50.948;5.316;2023-02-19T18:05:34;9.60;99.90
33139;DHT22;19501;50.948;5.316;2023-02-19T18:08:00;9.60;99.90
33139;DHT22;19501;50.948;5.316;2023-02-19T18:10:26;9.50;99.90
33139;DHT22;19501;50.948;5.316;2023-02-19T18:12:51;9.50;99.90
33139;DHT22;19501;50.948;5.316;2023-02-19T18:15:20;9.50;99.90
33139;DHT22;19501;50.948;5.316;2023-02-19T18:17:46;9.50;99.90
33139;DHT22;19501;50.948;5.316;2023-02-19T18:20:13;9.60;99.90
33139;DHT22;19501;50.948;5.316;2023-02-19T18:22:40;9.60;99.90
33139;DHT22;19501;50.948;5.316;2023-02-19T18:25:07;9.70;99.90
33139;DHT22;19501;50.948;5.316;2023-02-19T18:27:32;9.70;99.90
33139;DHT22;19501;50.948;5.316;2023-02-19T18:29:58;9.60;99.90
33139;DHT22;19501;50.948;5.316;2023-02-19T18:32:24;9.70;99.90
33139;DHT22;19501;50.948;5.316;2023-02-19T18:34:55;9.60;99.90
33139;DHT22;19501;50.948;5.316;2023-02-19T18:37:22;9.60;99.90
33139;DHT22;19501;50.948;5.316;2023-02-19T18:39:48;9.50;99.90